sensor_id;sensor_type;location;lat;lon;timestamp;temperature;humidity
52849;DHT22;38714;53.180;5.812;2023-02-22T00:00:49;8.30;99.90
52849;DHT22;38714;53.180;5.812;2023-02-22T00:03:21;8.30;99.90
52849;DHT22;38714;53.180;5.812;2023-02-22T00:05:51;8.30;99.90
52849;DHT22;38714;53.180;5.812;2023-02-22T00:08:20;8.30;99.90
52849;DHT22;38714;53.180;5.812;2023-02-22T00:10:46;8.30;99.90
52849;DHT22;38714;53.180;5.812;2023-02-22T00:13:16;8.20;99.90
52849;DHT22;38714;53.180;5.812;2023-02-22T00:15:42;8.30;99.90
52849;DHT22;38714;53.180;5.812;2023-02-22T00:18:13;8.30;99.90
52849;DHT22;38714;53.180;5.812;2023-02-22T00:20:39;8.20;99.90
52849;DHT22;38714;53.180;5.812;2023-02-22T00:23:06;8.30;99.90
52849;DHT22;38714;53.180;5.812;2023-02-22T00:25:33;8.30;99.90
52849;DHT22;38714;53.180;5.812;2023-02-22T00:28:00;8.20;99.90
52849;DHT22;38714;53.180;5.812;2023-02-22T00:30:27;8.20;99.90
52849;DHT22;38714;53.180;5.812;2023-02-22T00:32:55;8.20;99.90
52849;DHT22;38714;53.180;5.812;2023-02-22T00:35:27;8.20;99.90
52849;DHT22;38714;53.180;5.812;2023-02-22T00:37:56;8.20;99.90
52849;DHT22;38714;53.180;5.812;2023-02-22T00:40:25;8.20;99.90
52849;DHT22;38714;53.180;5.812;2023-02-22T00:42:51;8.20;99.90
52849;DHT22;38714;53.180;5.812;2023-02-22T00:45:19;8.20;99.90
52849;DHT22;38714;53.180;5.812;2023-02-22T00:47:45;8.20;99.90
52849;DHT22;38714;53.180;5.812;2023-02-22T00:50:11;8.20;99.90
52849;DHT22;38714;53.180;5.812;2023-02-22T00:52:37;8.20;99.90
52849;DHT22;38714;53.180;5.812;2023-02-22T00:55:08;8.20;99.90
52849;DHT22;38714;53.180;5.812;2023-02-22T00:57:34;8.20;99.90
52849;DHT22;38714;53.180;5.812;2023-02-22T01:00:03;8.20;99.90
52849;DHT22;38714;53.180;5.812;2023-02-22T01:02:37;8.10;99.90
52849;DHT22;38714;53.180;5.812;2023-02-22T01:05:04;8.10;99.90
52849;DHT22;38714;53.180;5.812;2023-02-22T01:07:30;8.10;99.90
52849;DHT22;38714;53.180;5.812;2023-02-22T01:09:55;8.20;99.90
52849;DHT22;38714;53.180;5.812;2023-02-22T01:12:22;8.20;99.90
52849;DHT22;38714;53.180;5.812;2023-02-22T01:14:47;8.20;99.90
52849;DHT22;38714;53.180;5.812;2023-02-22T01:17:13;8.10;99.90
52849;DHT22;38714;53.180;5.812;2023-02-22T01:19:38;8.20;99.90
52849;DHT22;38714;53.180;5.812;2023-02-22T01:22:07;8.10;99.90
52849;DHT22;38714;53.180;5.812;2023-02-22T01:24:33;8.10;99.90
52849;DHT22;38714;53.180;5.812;2023-02-22T01:26:59;8.10;99.90
52849;DHT22;38714;53.180;5.812;2023-02-22T01:29:26;8.10;99.90
52849;DHT22;38714;53.180;5.812;2023-02-22T01:31:54;8.10;99.90
52849;DHT22;38714;53.180;5.812;2023-02-22T01:34:21;8.10;99.90
52849;DHT22;38714;53.180;5.812;2023-02-22T01:36:48;8.10;99.90
52849;DHT22;38714;53.180;5.812;2023-02-22T01:39:14;8.10;99.90
52849;DHT22;38714;53.180;5.812;2023-02-22T01:41:45;8.10;99.90
52849;DHT22;38714;53.180;5.812;2023-02-22T01:44:40;8.10;99.90
52849;DHT22;38714;53.180;5.812;2023-02-22T01:47:06;8.10;99.90
52849;DHT22;38714;53.180;5.812;2023-02-22T01:49:42;8.10;99.90
52849;DHT22;38714;53.180;5.812;2023-02-22T01:52:14;8.10;99.90
52849;DHT22;38714;53.180;5.812;2023-02-22T01:54:48;8.10;99.90
52849;DHT22;38714;53.180;5.812;2023-02-22T01:57:22;8.10;99.90
52849;DHT22;38714;53.180;5.812;2023-02-22T01:59:58;8.10;99.90
52849;DHT22;38714;53.180;5.812;2023-02-22T02:02:26;8.10;99.90
52849;DHT22;38714;53.180;5.812;2023-02-22T02:04:53;8.10;99.90
52849;DHT22;38714;53.180;5.812;2023-02-22T02:07:22;8.10;99.90
52849;DHT22;38714;53.180;5.812;2023-02-22T02:12:30;8.10;99.90
52849;DHT22;38714;53.180;5.812;2023-02-22T02:15:31;8.10;99.90
52849;DHT22;38714;53.180;5.812;2023-02-22T02:18:00;8.10;99.90
52849;DHT22;38714;53.180;5.812;2023-02-22T02:21:27;8.10;99.90
52849;DHT22;38714;53.180;5.812;2023-02-22T02:23:37;8.10;99.90
52849;DHT22;38714;53.180;5.812;2023-02-22T02:26:14;8.10;99.90
52849;DHT22;38714;53.180;5.812;2023-02-22T02:34:53;8.10;99.90
52849;DHT22;38714;53.180;5.812;2023-02-22T02:40:20;8.10;99.90
52849;DHT22;38714;53.180;5.812;2023-02-22T02:43:06;8.10;99.90
52849;DHT22;38714;53.180;5.812;2023-02-22T02:48:30;8.00;99.90
52849;DHT22;38714;53.180;5.812;2023-02-22T02:50:58;8.00;99.90
52849;DHT22;38714;53.180;5.812;2023-02-22T02:53:30;8.00;99.90
52849;DHT22;38714;53.180;5.812;2023-02-22T02:56:00;8.00;99.90
52849;DHT22;38714;53.180;5.812;2023-02-22T02:58:26;8.00;99.90
52849;DHT22;38714;53.180;5.812;2023-02-22T03:00:54;8.00;99.90
52849;DHT22;38714;53.180;5.812;2023-02-22T03:09:47;8.00;99.90
52849;DHT22;38714;53.180;5.812;2023-02-22T03:12:16;8.00;99.90
52849;DHT22;38714;53.180;5.812;2023-02-22T03:20:21;8.00;99.90
52849;DHT22;38714;53.180;5.812;2023-02-22T03:22:56;8.00;99.90
52849;DHT22;38714;53.180;5.812;2023-02-22T03:25:42;8.00;99.90
52849;DHT22;38714;53.180;5.812;2023-02-22T03:28:14;8.00;99.90
52849;DHT22;38714;53.180;5.812;2023-02-22T03:30:49;8.00;99.90
52849;DHT22;38714;53.180;5.812;2023-02-22T03:33:40;8.00;99.90
52849;DHT22;38714;53.180;5.812;2023-02-22T03:36:29;8.00;99.90
52849;DHT22;38714;53.180;5.812;2023-02-22T03:38:58;8.00;99.90
52849;DHT22;38714;53.180;5.812;2023-02-22T03:41:25;7.90;99.90
52849;DHT22;38714;53.180;5.812;2023-02-22T03:43:57;8.00;99.90
52849;DHT22;38714;53.180;5.812;2023-02-22T03:46:25;7.90;99.90
52849;DHT22;38714;53.180;5.812;2023-02-22T03:49:01;8.00;99.90
52849;DHT22;38714;53.180;5.812;2023-02-22T03:51:29;7.90;99.90
52849;DHT22;38714;53.180;5.812;2023-02-22T03:53:55;7.90;99.90
52849;DHT22;38714;53.180;5.812;2023-02-22T03:56:25;7.90;99.90
52849;DHT22;38714;53.180;5.812;2023-02-22T03:58:51;8.00;99.90
52849;DHT22;38714;53.180;5.812;2023-02-22T04:01:17;7.90;99.90
52849;DHT22;38714;53.180;5.812;2023-02-22T04:03:44;8.00;99.90
52849;DHT22;38714;53.180;5.812;2023-02-22T04:06:10;8.00;99.90
52849;DHT22;38714;53.180;5.812;2023-02-22T04:08:36;8.00;99.90
52849;DHT22;38714;53.180;5.812;2023-02-22T04:11:01;7.90;99.90
52849;DHT22;38714;53.180;5.812;2023-02-22T04:13:27;8.00;99.90
52849;DHT22;38714;53.180;5.812;2023-02-22T04:15:53;8.00;99.90
52849;DHT22;38714;53.180;5.812;2023-02-22T04:18:19;8.00;99.90
52849;DHT22;38714;53.180;5.812;2023-02-22T04:20:44;8.00;99.90
52849;DHT22;38714;53.180;5.812;2023-02-22T04:23:10;8.00;99.90
52849;DHT22;38714;53.180;5.812;2023-02-22T04:25:35;8.00;99.90
52849;DHT22;38714;53.180;5.812;2023-02-22T04:28:01;8.00;99.90
52849;DHT22;38714;53.180;5.812;2023-02-22T04:30:27;8.00;99.90
52849;DHT22;38714;53.180;5.812;2023-02-22T04:32:55;8.00;99.90
52849;DHT22;38714;53.180;5.812;2023-02-22T04:35:20;8.00;99.90
52849;DHT22;38714;53.180;5.812;2023-02-22T04:37:46;8.00;99.90
52849;DHT22;38714;53.180;5.812;2023-02-22T04:40:12;8.00;99.90
52849;DHT22;38714;53.180;5.812;2023-02-22T04:42:38;8.00;99.90
52849;DHT22;38714;53.180;5.812;2023-02-22T04:45:06;8.00;99.90
52849;DHT22;38714;53.180;5.812;2023-02-22T04:47:33;8.00;99.90
52849;DHT22;38714;53.180;5.812;2023-02-22T04:49:59;8.00;99.90
52849;DHT22;38714;53.180;5.812;2023-02-22T04:52:27;8.00;99.90
52849;DHT22;38714;53.180;5.812;2023-02-22T04:54:53;8.00;99.90
52849;DHT22;38714;53.180;5.812;2023-02-22T04:57:19;8.00;99.90
52849;DHT22;38714;53.180;5.812;2023-02-22T04:59:44;8.00;99.90
52849;DHT22;38714;53.180;5.812;2023-02-22T05:02:10;8.00;99.90
52849;DHT22;38714;53.180;5.812;2023-02-22T05:04:37;8.00;99.90
52849;DHT22;38714;53.180;5.812;2023-02-22T05:07:03;8.00;99.90
52849;DHT22;38714;53.180;5.812;2023-02-22T05:09:28;7.90;99.90
52849;DHT22;38714;53.180;5.812;2023-02-22T05:11:54;8.00;99.90
52849;DHT22;38714;53.180;5.812;2023-02-22T05:14:19;8.00;99.90
52849;DHT22;38714;53.180;5.812;2023-02-22T05:16:47;7.90;99.90
52849;DHT22;38714;53.180;5.812;2023-02-22T05:19:14;7.90;99.90
52849;DHT22;38714;53.180;5.812;2023-02-22T05:21:39;7.90;99.90
52849;DHT22;38714;53.180;5.812;2023-02-22T05:24:05;7.90;99.90
52849;DHT22;38714;53.180;5.812;2023-02-22T05:26:31;7.90;99.90
52849;DHT22;38714;53.180;5.812;2023-02-22T05:28:57;7.90;99.90
52849;DHT22;38714;53.180;5.812;2023-02-22T05:31:22;7.90;99.90
52849;DHT22;38714;53.180;5.812;2023-02-22T05:33:48;7.90;99.90
52849;DHT22;38714;53.180;5.812;2023-02-22T05:36:14;7.80;99.90
52849;DHT22;38714;53.180;5.812;2023-02-22T05:38:41;7.80;99.90
52849;DHT22;38714;53.180;5.812;2023-02-22T05:41:09;7.80;99.90
52849;DHT22;38714;53.180;5.812;2023-02-22T05:43:36;7.80;99.90
52849;DHT22;38714;53.180;5.812;2023-02-22T05:46:02;7.80;99.90
52849;DHT22;38714;53.180;5.812;2023-02-22T05:48:27;7.80;99.90
52849;DHT22;38714;53.180;5.812;2023-02-22T05:50:53;7.80;99.90
52849;DHT22;38714;53.180;5.812;2023-02-22T05:53:20;7.80;99.90
52849;DHT22;38714;53.180;5.812;2023-02-22T05:55:48;7.80;99.90
52849;DHT22;38714;53.180;5.812;2023-02-22T05:58:14;7.80;99.90
52849;DHT22;38714;53.180;5.812;2023-02-22T06:00:40;7.80;99.90
52849;DHT22;38714;53.180;5.812;2023-02-22T06:03:07;7.80;99.90
52849;DHT22;38714;53.180;5.812;2023-02-22T06:05:34;7.80;99.90
52849;DHT22;38714;53.180;5.812;2023-02-22T06:08:00;7.80;99.90
52849;DHT22;38714;53.180;5.812;2023-02-22T06:10:26;7.80;99.90
52849;DHT22;38714;53.180;5.812;2023-02-22T06:12:52;7.80;99.90
52849;DHT22;38714;53.180;5.812;2023-02-22T06:15:19;7.80;99.90
52849;DHT22;38714;53.180;5.812;2023-02-22T06:17:46;7.70;99.90
52849;DHT22;38714;53.180;5.812;2023-02-22T06:20:13;7.80;99.90
52849;DHT22;38714;53.180;5.812;2023-02-22T06:22:39;7.70;99.90
52849;DHT22;38714;53.180;5.812;2023-02-22T06:25:13;7.80;99.90
52849;DHT22;38714;53.180;5.812;2023-02-22T06:27:39;7.80;99.90
52849;DHT22;38714;53.180;5.812;2023-02-22T06:30:05;7.80;99.90
52849;DHT22;38714;53.180;5.812;2023-02-22T06:32:30;7.70;99.90
52849;DHT22;38714;53.180;5.812;2023-02-22T06:34:56;7.70;99.90
52849;DHT22;38714;53.180;5.812;2023-02-22T06:37:22;7.70;99.90
52849;DHT22;38714;53.180;5.812;2023-02-22T06:39:47;7.70;99.90
52849;DHT22;38714;53.180;5.812;2023-02-22T06:42:13;7.70;99.90
52849;DHT22;38714;53.180;5.812;2023-02-22T06:44:38;7.70;99.90
52849;DHT22;38714;53.180;5.812;2023-02-22T06:47:04;7.70;99.90
52849;DHT22;38714;53.180;5.812;2023-02-22T06:49:29;7.60;99.90
52849;DHT22;38714;53.180;5.812;2023-02-22T06:51:55;7.60;99.90
52849;DHT22;38714;53.180;5.812;2023-02-22T06:54:21;7.60;99.90
52849;DHT22;38714;53.180;5.812;2023-02-22T06:56:47;7.60;99.90
52849;DHT22;38714;53.180;5.812;2023-02-22T06:59:14;7.60;99.90
52849;DHT22;38714;53.180;5.812;2023-02-22T07:01:40;7.60;99.90
52849;DHT22;38714;53.180;5.812;2023-02-22T07:04:06;7.60;99.90
52849;DHT22;38714;53.180;5.812;2023-02-22T07:06:32;7.60;99.90
52849;DHT22;38714;53.180;5.812;2023-02-22T07:08:57;7.50;99.90
52849;DHT22;38714;53.180;5.812;2023-02-22T07:11:23;7.60;99.90
52849;DHT22;38714;53.180;5.812;2023-02-22T07:13:49;7.50;99.90
52849;DHT22;38714;53.180;5.812;2023-02-22T07:16:14;7.50;99.90
52849;DHT22;38714;53.180;5.812;2023-02-22T07:18:40;7.50;99.90
52849;DHT22;38714;53.180;5.812;2023-02-22T07:21:06;7.50;99.90
52849;DHT22;38714;53.180;5.812;2023-02-22T07:23:32;7.50;99.90
52849;DHT22;38714;53.180;5.812;2023-02-22T07:26:02;7.50;99.90
52849;DHT22;38714;53.180;5.812;2023-02-22T07:28:27;7.50;99.90
52849;DHT22;38714;53.180;5.812;2023-02-22T07:30:53;7.50;99.90
52849;DHT22;38714;53.180;5.812;2023-02-22T07:33:19;7.50;99.90
52849;DHT22;38714;53.180;5.812;2023-02-22T07:35:47;7.50;99.90
52849;DHT22;38714;53.180;5.812;2023-02-22T07:38:15;7.50;99.90
52849;DHT22;38714;53.180;5.812;2023-02-22T07:40:41;7.50;99.90
52849;DHT22;38714;53.180;5.812;2023-02-22T07:45:42;7.50;99.90
52849;DHT22;38714;53.180;5.812;2023-02-22T07:48:08;7.50;99.90
52849;DHT22;38714;53.180;5.812;2023-02-22T07:50:34;7.50;99.90
52849;DHT22;38714;53.180;5.812;2023-02-22T07:53:03;7.50;99.90
52849;DHT22;38714;53.180;5.812;2023-02-22T07:55:30;7.50;99.90
52849;DHT22;38714;53.180;5.812;2023-02-22T07:57:58;7.50;99.90
52849;DHT22;38714;53.180;5.812;2023-02-22T08:00:30;7.50;99.90
52849;DHT22;38714;53.180;5.812;2023-02-22T08:02:58;7.50;99.90
52849;DHT22;38714;53.180;5.812;2023-02-22T08:05:25;7.50;99.90
52849;DHT22;38714;53.180;5.812;2023-02-22T08:07:51;7.50;99.90
52849;DHT22;38714;53.180;5.812;2023-02-22T08:10:18;7.60;99.90
52849;DHT22;38714;53.180;5.812;2023-02-22T08:12:44;7.60;99.90
52849;DHT22;38714;53.180;5.812;2023-02-22T08:15:17;7.60;99.90
52849;DHT22;38714;53.180;5.812;2023-02-22T08:17:43;7.60;99.90
52849;DHT22;38714;53.180;5.812;2023-02-22T08:20:09;7.60;99.90
52849;DHT22;38714;53.180;5.812;2023-02-22T08:22:34;7.60;99.90
52849;DHT22;38714;53.180;5.812;2023-02-22T08:25:00;7.60;99.90
52849;DHT22;38714;53.180;5.812;2023-02-22T08:27:27;7.60;99.90
52849;DHT22;38714;53.180;5.812;2023-02-22T08:29:54;7.60;99.90
52849;DHT22;38714;53.180;5.812;2023-02-22T08:32:20;7.60;99.90
52849;DHT22;38714;53.180;5.812;2023-02-22T08:34:46;7.60;99.90
52849;DHT22;38714;53.180;5.812;2023-02-22T08:37:12;7.60;99.90
52849;DHT22;38714;53.180;5.812;2023-02-22T08:39:38;7.60;99.90
52849;DHT22;38714;53.180;5.812;2023-02-22T08:42:04;7.60;99.90
52849;DHT22;38714;53.180;5.812;2023-02-22T08:44:29;7.60;99.90
52849;DHT22;38714;53.180;5.812;2023-02-22T08:46:55;7.70;99.90
52849;DHT22;38714;53.180;5.812;2023-02-22T08:49:21;7.60;99.90
52849;DHT22;38714;53.180;5.812;2023-02-22T08:51:46;7.70;99.90
52849;DHT22;38714;53.180;5.812;2023-02-22T08:54:12;7.70;99.90
52849;DHT22;38714;53.180;5.812;2023-02-22T08:56:38;7.60;99.90
52849;DHT22;38714;53.180;5.812;2023-02-22T08:59:03;7.70;99.90
52849;DHT22;38714;53.180;5.812;2023-02-22T09:01:32;7.70;99.90
52849;DHT22;38714;53.180;5.812;2023-02-22T09:03:59;7.70;99.90
52849;DHT22;38714;53.180;5.812;2023-02-22T09:06:25;7.70;99.90
52849;DHT22;38714;53.180;5.812;2023-02-22T09:08:50;7.70;99.90
52849;DHT22;38714;53.180;5.812;2023-02-22T09:11:16;7.70;99.90
52849;DHT22;38714;53.180;5.812;2023-02-22T09:13:43;7.70;99.90
52849;DHT22;38714;53.180;5.812;2023-02-22T09:16:09;7.70;99.90
52849;DHT22;38714;53.180;5.812;2023-02-22T09:18:34;7.70;99.90
52849;DHT22;38714;53.180;5.812;2023-02-22T09:21:01;7.80;99.90
52849;DHT22;38714;53.180;5.812;2023-02-22T09:23:27;7.80;99.90
52849;DHT22;38714;53.180;5.812;2023-02-22T09:25:53;7.80;99.90
52849;DHT22;38714;53.180;5.812;2023-02-22T09:28:18;7.80;99.90
52849;DHT22;38714;53.180;5.812;2023-02-22T09:30:44;7.80;99.90
52849;DHT22;38714;53.180;5.812;2023-02-22T09:33:15;7.80;99.90
52849;DHT22;38714;53.180;5.812;2023-02-22T09:35:43;7.80;99.90
52849;DHT22;38714;53.180;5.812;2023-02-22T09:38:12;7.80;99.90
52849;DHT22;38714;53.180;5.812;2023-02-22T09:40:41;7.80;99.90
52849;DHT22;38714;53.180;5.812;2023-02-22T09:48:59;7.90;99.90
52849;DHT22;38714;53.180;5.812;2023-02-22T09:51:39;7.90;99.90
52849;DHT22;38714;53.180;5.812;2023-02-22T09:56:55;7.90;99.90
52849;DHT22;38714;53.180;5.812;2023-02-22T09:59:28;8.00;99.90
52849;DHT22;38714;53.180;5.812;2023-02-22T10:02:00;8.00;99.90
52849;DHT22;38714;53.180;5.812;2023-02-22T10:04:41;8.00;99.90
52849;DHT22;38714;53.180;5.812;2023-02-22T10:07:32;8.10;99.90
52849;DHT22;38714;53.180;5.812;2023-02-22T10:09:59;8.10;99.90
52849;DHT22;38714;53.180;5.812;2023-02-22T10:17:51;8.10;99.90
52849;DHT22;38714;53.180;5.812;2023-02-22T10:25:38;8.20;99.90
52849;DHT22;38714;53.180;5.812;2023-02-22T10:28:20;8.20;99.90
52849;DHT22;38714;53.180;5.812;2023-02-22T10:30:57;8.20;99.90
52849;DHT22;38714;53.180;5.812;2023-02-22T10:33:29;8.20;99.90
52849;DHT22;38714;53.180;5.812;2023-02-22T10:35:56;8.30;99.90
52849;DHT22;38714;53.180;5.812;2023-02-22T10:38:30;8.30;99.90
52849;DHT22;38714;53.180;5.812;2023-02-22T10:41:02;8.30;99.90
52849;DHT22;38714;53.180;5.812;2023-02-22T10:43:29;8.30;99.90
52849;DHT22;38714;53.180;5.812;2023-02-22T10:45:57;8.40;99.90
52849;DHT22;38714;53.180;5.812;2023-02-22T10:48:26;8.40;99.90
52849;DHT22;38714;53.180;5.812;2023-02-22T10:50:58;8.40;99.90
52849;DHT22;38714;53.180;5.812;2023-02-22T10:53:25;8.40;99.90
52849;DHT22;38714;53.180;5.812;2023-02-22T10:56:11;8.50;99.90
52849;DHT22;38714;53.180;5.812;2023-02-22T10:58:54;8.50;99.90
52849;DHT22;38714;53.180;5.812;2023-02-22T11:01:38;8.50;99.90
52849;DHT22;38714;53.180;5.812;2023-02-22T11:04:20;8.60;99.90
52849;DHT22;38714;53.180;5.812;2023-02-22T11:06:49;8.60;99.90
52849;DHT22;38714;53.180;5.812;2023-02-22T11:09:30;8.60;99.90
52849;DHT22;38714;53.180;5.812;2023-02-22T11:12:10;8.60;99.90
52849;DHT22;38714;53.180;5.812;2023-02-22T11:14:36;8.60;99.90
52849;DHT22;38714;53.180;5.812;2023-02-22T11:17:07;8.60;99.90
52849;DHT22;38714;53.180;5.812;2023-02-22T11:19:33;8.60;99.90
52849;DHT22;38714;53.180;5.812;2023-02-22T11:22:12;8.70;99.90
52849;DHT22;38714;53.180;5.812;2023-02-22T11:24:53;8.70;99.90
52849;DHT22;38714;53.180;5.812;2023-02-22T11:27:38;8.70;99.90
52849;DHT22;38714;53.180;5.812;2023-02-22T11:30:30;8.70;99.90
52849;DHT22;38714;53.180;5.812;2023-02-22T11:35:58;8.70;99.90
52849;DHT22;38714;53.180;5.812;2023-02-22T11:38:26;8.80;99.90
52849;DHT22;38714;53.180;5.812;2023-02-22T11:41:15;8.80;99.90
52849;DHT22;38714;53.180;5.812;2023-02-22T11:43:42;8.90;99.90
52849;DHT22;38714;53.180;5.812;2023-02-22T11:46:22;8.90;99.90
52849;DHT22;38714;53.180;5.812;2023-02-22T11:49:06;8.90;99.90
52849;DHT22;38714;53.180;5.812;2023-02-22T11:54:40;8.90;99.90
52849;DHT22;38714;53.180;5.812;2023-02-22T11:57:14;9.00;99.90
52849;DHT22;38714;53.180;5.812;2023-02-22T12:11:23;9.00;99.90
52849;DHT22;38714;53.180;5.812;2023-02-22T12:14:11;9.00;99.90
52849;DHT22;38714;53.180;5.812;2023-02-22T12:16:50;9.00;99.90
52849;DHT22;38714;53.180;5.812;2023-02-22T12:19:46;9.10;99.90
52849;DHT22;38714;53.180;5.812;2023-02-22T12:22:27;9.00;99.90
52849;DHT22;38714;53.180;5.812;2023-02-22T12:30:44;9.10;99.90
52849;DHT22;38714;53.180;5.812;2023-02-22T12:33:14;9.10;99.90
52849;DHT22;38714;53.180;5.812;2023-02-22T12:35:49;9.20;99.90
52849;DHT22;38714;53.180;5.812;2023-02-22T12:38:29;9.20;99.90
52849;DHT22;38714;53.180;5.812;2023-02-22T12:41:11;9.20;99.90
52849;DHT22;38714;53.180;5.812;2023-02-22T12:43:46;9.20;99.90
52849;DHT22;38714;53.180;5.812;2023-02-22T12:46:28;9.20;99.90
52849;DHT22;38714;53.180;5.812;2023-02-22T12:55:03;9.20;99.90
52849;DHT22;38714;53.180;5.812;2023-02-22T12:57:41;9.20;99.90
52849;DHT22;38714;53.180;5.812;2023-02-22T13:00:16;9.20;99.90
52849;DHT22;38714;53.180;5.812;2023-02-22T13:02:52;9.10;99.90
52849;DHT22;38714;53.180;5.812;2023-02-22T13:05:21;9.20;99.90
52849;DHT22;38714;53.180;5.812;2023-02-22T13:08:15;9.10;99.90
52849;DHT22;38714;53.180;5.812;2023-02-22T13:13:55;9.10;99.90
52849;DHT22;38714;53.180;5.812;2023-02-22T13:16:44;9.20;99.90
52849;DHT22;38714;53.180;5.812;2023-02-22T13:22:06;9.20;99.90
52849;DHT22;38714;53.180;5.812;2023-02-22T13:27:37;9.20;99.90
52849;DHT22;38714;53.180;5.812;2023-02-22T13:30:13;9.20;99.90
52849;DHT22;38714;53.180;5.812;2023-02-22T13:32:45;9.20;99.90
52849;DHT22;38714;53.180;5.812;2023-02-22T13:35:49;9.20;99.90
52849;DHT22;38714;53.180;5.812;2023-02-22T13:43:58;9.20;99.90
52849;DHT22;38714;53.180;5.812;2023-02-22T13:52:30;9.20;99.90
52849;DHT22;38714;53.180;5.812;2023-02-22T13:55:02;9.20;99.90
52849;DHT22;38714;53.180;5.812;2023-02-22T13:57:29;9.20;99.90
52849;DHT22;38714;53.180;5.812;2023-02-22T14:00:43;9.20;99.90
52849;DHT22;38714;53.180;5.812;2023-02-22T14:08:05;9.20;99.90
52849;DHT22;38714;53.180;5.812;2023-02-22T14:13:22;9.20;99.90
52849;DHT22;38714;53.180;5.812;2023-02-22T14:18:23;9.20;99.90
52849;DHT22;38714;53.180;5.812;2023-02-22T14:21:10;9.20;99.90
52849;DHT22;38714;53.180;5.812;2023-02-22T14:23:39;9.20;99.90
52849;DHT22;38714;53.180;5.812;2023-02-22T14:26:32;9.20;99.90
52849;DHT22;38714;53.180;5.812;2023-02-22T14:32:06;9.20;99.90
52849;DHT22;38714;53.180;5.812;2023-02-22T14:34:51;9.20;99.90
52849;DHT22;38714;53.180;5.812;2023-02-22T14:37:27;9.30;99.90
52849;DHT22;38714;53.180;5.812;2023-02-22T14:39:59;9.20;99.90
52849;DHT22;38714;53.180;5.812;2023-02-22T14:42:39;9.20;99.90
52849;DHT22;38714;53.180;5.812;2023-02-22T14:47:38;9.20;99.90
52849;DHT22;38714;53.180;5.812;2023-02-22T14:50:18;9.20;99.90
52849;DHT22;38714;53.180;5.812;2023-02-22T14:52:54;9.30;99.90
52849;DHT22;38714;53.180;5.812;2023-02-22T14:55:24;9.30;99.90
52849;DHT22;38714;53.180;5.812;2023-02-22T15:00:41;9.30;99.90
52849;DHT22;38714;53.180;5.812;2023-02-22T15:03:31;9.30;99.90
52849;DHT22;38714;53.180;5.812;2023-02-22T15:06:20;9.30;99.90
52849;DHT22;38714;53.180;5.812;2023-02-22T15:08:47;9.30;99.90
52849;DHT22;38714;53.180;5.812;2023-02-22T15:11:25;9.30;99.90
52849;DHT22;38714;53.180;5.812;2023-02-22T15:13:56;9.30;99.90
52849;DHT22;38714;53.180;5.812;2023-02-22T15:16:25;9.30;99.90
52849;DHT22;38714;53.180;5.812;2023-02-22T15:18:54;9.30;99.90
52849;DHT22;38714;53.180;5.812;2023-02-22T15:21:23;9.30;99.90
52849;DHT22;38714;53.180;5.812;2023-02-22T15:24:00;9.30;99.90
52849;DHT22;38714;53.180;5.812;2023-02-22T15:26:37;9.30;99.90
52849;DHT22;38714;53.180;5.812;2023-02-22T15:31:36;9.30;99.90
52849;DHT22;38714;53.180;5.812;2023-02-22T15:34:30;9.30;99.90
52849;DHT22;38714;53.180;5.812;2023-02-22T15:36:57;9.20;99.90
52849;DHT22;38714;53.180;5.812;2023-02-22T15:39:29;9.20;99.90
52849;DHT22;38714;53.180;5.812;2023-02-22T15:44:42;9.20;99.90
52849;DHT22;38714;53.180;5.812;2023-02-22T15:47:22;9.20;99.90
52849;DHT22;38714;53.180;5.812;2023-02-22T15:50:13;9.20;99.90
52849;DHT22;38714;53.180;5.812;2023-02-22T15:52:58;9.20;99.90
52849;DHT22;38714;53.180;5.812;2023-02-22T15:55:28;9.20;99.90
52849;DHT22;38714;53.180;5.812;2023-02-22T15:57:58;9.20;99.90
52849;DHT22;38714;53.180;5.812;2023-02-22T16:00:32;9.10;99.90
52849;DHT22;38714;53.180;5.812;2023-02-22T16:03:11;9.20;99.90
52849;DHT22;38714;53.180;5.812;2023-02-22T16:05:41;9.10;99.90
52849;DHT22;38714;53.180;5.812;2023-02-22T16:10:46;9.10;99.90
52849;DHT22;38714;53.180;5.812;2023-02-22T16:13:25;9.10;99.90
52849;DHT22;38714;53.180;5.812;2023-02-22T16:16:00;9.10;99.90
52849;DHT22;38714;53.180;5.812;2023-02-22T16:21:02;9.00;99.90
52849;DHT22;38714;53.180;5.812;2023-02-22T16:23:28;9.00;99.90
52849;DHT22;38714;53.180;5.812;2023-02-22T16:26:25;9.00;99.90
52849;DHT22;38714;53.180;5.812;2023-02-22T16:28:57;9.00;99.90
52849;DHT22;38714;53.180;5.812;2023-02-22T16:31:26;8.90;99.90
52849;DHT22;38714;53.180;5.812;2023-02-22T16:33:52;9.00;99.90
52849;DHT22;38714;53.180;5.812;2023-02-22T16:36:19;8.90;99.90
52849;DHT22;38714;53.180;5.812;2023-02-22T16:38:47;8.90;99.90
52849;DHT22;38714;53.180;5.812;2023-02-22T16:41:16;8.90;99.90
52849;DHT22;38714;53.180;5.812;2023-02-22T16:43:48;8.90;99.90
52849;DHT22;38714;53.180;5.812;2023-02-22T16:46:16;8.90;99.90
52849;DHT22;38714;53.180;5.812;2023-02-22T16:48:43;8.90;99.90
52849;DHT22;38714;53.180;5.812;2023-02-22T16:51:27;8.80;99.90
52849;DHT22;38714;53.180;5.812;2023-02-22T16:53:54;8.80;99.90
52849;DHT22;38714;53.180;5.812;2023-02-22T16:56:23;8.80;99.90
52849;DHT22;38714;53.180;5.812;2023-02-22T16:58:50;8.80;99.90
52849;DHT22;38714;53.180;5.812;2023-02-22T17:01:17;8.80;99.90
52849;DHT22;38714;53.180;5.812;2023-02-22T17:03:43;8.80;99.90
52849;DHT22;38714;53.180;5.812;2023-02-22T17:06:09;8.80;99.90
52849;DHT22;38714;53.180;5.812;2023-02-22T17:08:37;8.70;99.90
52849;DHT22;38714;53.180;5.812;2023-02-22T17:11:03;8.70;99.90
52849;DHT22;38714;53.180;5.812;2023-02-22T17:13:29;8.70;99.90
52849;DHT22;38714;53.180;5.812;2023-02-22T17:15:55;8.70;99.90
52849;DHT22;38714;53.180;5.812;2023-02-22T17:18:24;8.70;99.90
52849;DHT22;38714;53.180;5.812;2023-02-22T17:20:53;8.60;99.90
52849;DHT22;38714;53.180;5.812;2023-02-22T17:23:19;8.60;99.90
52849;DHT22;38714;53.180;5.812;2023-02-22T17:25:58;8.60;99.90
52849;DHT22;38714;53.180;5.812;2023-02-22T17:28:25;8.60;99.90
52849;DHT22;38714;53.180;5.812;2023-02-22T17:30:52;8.60;99.90
52849;DHT22;38714;53.180;5.812;2023-02-22T17:33:21;8.60;99.90
52849;DHT22;38714;53.180;5.812;2023-02-22T17:35:51;8.50;99.90
52849;DHT22;38714;53.180;5.812;2023-02-22T17:38:17;8.60;99.90
52849;DHT22;38714;53.180;5.812;2023-02-22T17:40:45;8.50;99.90
52849;DHT22;38714;53.180;5.812;2023-02-22T17:43:16;8.50;99.90
52849;DHT22;38714;53.180;5.812;2023-02-22T17:45:44;8.50;99.90
52849;DHT22;38714;53.180;5.812;2023-02-22T17:48:11;8.50;99.90
52849;DHT22;38714;53.180;5.812;2023-02-22T17:50:38;8.50;99.90
52849;DHT22;38714;53.180;5.812;2023-02-22T17:53:05;8.50;99.90
52849;DHT22;38714;53.180;5.812;2023-02-22T17:55:31;8.50;99.90
52849;DHT22;38714;53.180;5.812;2023-02-22T17:57:59;8.50;99.90
52849;DHT22;38714;53.180;5.812;2023-02-22T18:00:33;8.40;99.90
52849;DHT22;38714;53.180;5.812;2023-02-22T18:03:01;8.40;99.90
52849;DHT22;38714;53.180;5.812;2023-02-22T18:05:27;8.40;99.90
52849;DHT22;38714;53.180;5.812;2023-02-22T18:07:53;8.40;99.90
52849;DHT22;38714;53.180;5.812;2023-02-22T18:10:18;8.40;99.90
52849;DHT22;38714;53.180;5.812;2023-02-22T18:12:46;8.40;99.90